Time;durP1;ratioP1;P1;durP2;ratioP2;P2;SDS_P1;SDS_P2;PMS_P1;PMS_P2;Temp;Humidity;BMP_temperature;BMP_pressure;BME280_temperature;BME280_humidity;BME280_pressure;Samples;Min_cycle;Max_cycle;Signal;HPM_P1;HPM_P2
2023/08/12 00:00:12;;;;;;;3.42;2.60;;;;;;;18.93;48.94;94443.16;5073495;28;20043;-77
2023/08/12 00:02:41;;;;;;;3.60;3.22;;;;;;;18.82;49.15;94440.19;5079498;28;20028;-78
2023/08/12 00:05:08;;;;;;;4.38;2.97;;;;;;;18.86;48.46;94433.00;4997465;28;20030;-76
2023/08/12 00:07:34;;;;;;;3.17;2.28;;;;;;;18.82;49.07;94437.50;4988716;28;20031;-78
2023/08/12 00:10:03;;;;;;;5.10;2.50;;;;;;;18.79;49.50;94445.50;4995145;28;20193;-79
2023/08/12 00:12:29;;;;;;;5.82;3.15;;;;;;;18.79;49.56;94443.59;4988035;28;20038;-77
2023/08/12 00:14:55;;;;;;;4.13;3.25;;;;;;;18.77;49.67;94453.94;5004517;28;20053;-77
2023/08/12 00:17:20;;;;;;;4.13;2.80;;;;;;;18.77;49.09;94437.78;4989817;28;20038;-77
2023/08/12 00:19:46;;;;;;;4.57;2.60;;;;;;;18.78;49.23;94441.25;4992463;28;20022;-76
2023/08/12 00:22:12;;;;;;;3.92;2.90;;;;;;;18.73;49.25;94436.91;4990386;28;20180;-77
2023/08/12 00:24:38;;;;;;;5.40;2.85;;;;;;;18.67;49.62;94446.38;4990734;28;20036;-77
2023/08/12 00:27:04;;;;;;;4.22;2.53;;;;;;;18.60;49.53;94446.19;4997896;28;20709;-76
2023/08/12 00:29:29;;;;;;;4.97;2.80;;;;;;;18.56;49.61;94426.47;4989933;28;20038;-78
2023/08/12 00:31:55;;;;;;;2.90;2.63;;;;;;;18.64;49.60;94436.28;4994397;28;20038;-77
2023/08/12 00:34:21;;;;;;;5.80;2.92;;;;;;;18.62;49.31;94443.94;4997391;28;20509;-78
2023/08/12 00:36:46;;;;;;;2.70;2.50;;;;;;;18.53;49.22;94426.41;4990566;28;20150;-78
2023/08/12 00:39:12;;;;;;;3.03;2.58;;;;;;;18.53;49.52;94429.09;5007269;28;20045;-78
2023/08/12 00:41:38;;;;;;;2.92;2.53;;;;;;;18.40;49.52;94426.47;4995818;28;20029;-78
2023/08/12 00:44:03;;;;;;;4.25;2.95;;;;;;;18.24;49.17;94400.66;4998558;28;20120;-76
2023/08/12 00:46:29;;;;;;;2.58;2.38;;;;;;;18.46;49.56;94432.38;4993204;28;20039;-79
2023/08/12 00:48:55;;;;;;;2.78;2.53;;;;;;;18.41;49.53;94428.03;4996755;28;20049;-77
2023/08/12 00:51:20;;;;;;;7.05;2.35;;;;;;;18.39;49.40;94418.72;4977760;28;20038;-77
2023/08/12 00:53:46;;;;;;;2.72;2.47;;;;;;;18.45;49.39;94425.44;4991352;28;20034;-78
2023/08/12 00:56:12;;;;;;;3.95;2.80;;;;;;;18.48;49.69;94427.41;4994744;28;20018;-77
2023/08/12 00:58:39;;;;;;;4.07;2.72;;;;;;;18.41;49.41;94406.50;4996096;28;20128;-77
2023/08/12 01:01:05;;;;;;;3.65;2.80;;;;;;;18.43;49.70;94416.94;4993657;28;20034;-77
2023/08/12 01:03:30;;;;;;;4.40;2.88;;;;;;;18.33;50.01;94414.75;4978750;28;20057;-76
2023/08/12 01:05:56;;;;;;;3.25;2.15;;;;;;;18.28;49.94;94406.94;4994673;28;20517;-77
2023/08/12 01:08:28;;;;;;;4.68;2.42;;;;;;;18.24;50.13;94414.91;4991825;28;20031;-76
2023/08/12 01:11:03;;;;;;;4.13;2.58;;;;;;;18.16;50.12;94402.41;4990742;28;20039;-78
2023/08/12 01:13:31;;;;;;;;;;;;;;;18.27;50.28;94426.91;5013723;28;20142;-78
2023/08/12 01:16:01;;;;;;;2.70;2.50;;;;;;;18.13;50.07;94415.78;4974744;28;19927;-79
2023/08/12 01:18:27;;;;;;;4.47;2.25;;;;;;;17.96;49.45;94401.50;4998918;28;20042;-78
2023/08/12 01:20:53;;;;;;;3.58;2.58;;;;;;;18.16;49.22;94418.56;4989275;28;20025;-76
2023/08/12 01:23:20;;;;;;;2.67;2.38;;;;;;;18.18;49.56;94412.84;4988176;28;20027;-78
2023/08/12 01:25:46;;;;;;;3.75;2.40;;;;;;;18.28;48.64;94425.78;4992097;28;20273;-76
2023/08/12 01:28:11;;;;;;;4.43;2.60;;;;;;;18.24;48.37;94401.44;4989899;28;20605;-77
2023/08/12 01:30:49;;;;;;;5.25;2.65;;;;;;;18.22;49.10;94419.09;4986885;28;20086;-77
2023/08/12 01:33:24;;;;;;;2.53;2.33;;;;;;;18.04;48.90;94411.31;4988988;28;20699;-76
2023/08/12 01:36:09;;;;;;;3.10;2.35;;;;;;;17.87;49.70;94378.56;4996234;28;20048;-78
2023/08/12 01:38:37;;;;;;;3.40;2.33;;;;;;;18.08;48.27;94406.06;4992588;28;20033;-79
2023/08/12 01:41:03;;;;;;;4.00;2.28;;;;;;;18.07;48.69;94409.06;4995810;28;20027;-76
2023/08/12 01:43:29;;;;;;;4.13;2.58;;;;;;;18.06;49.11;94410.19;4973279;28;20036;-79
2023/08/12 01:45:55;;;;;;;2.33;2.05;;;;;;;17.95;48.92;94399.94;4995576;28;20069;-77
2023/08/12 01:48:23;;;;;;;2.58;2.28;;;;;;;18.04;48.45;94414.00;4991670;28;20448;-78
2023/08/12 01:50:48;;;;;;;3.28;2.60;;;;;;;18.08;48.72;94414.13;4990879;28;20033;-78
2023/08/12 01:53:14;;;;;;;3.10;2.63;;;;;;;18.06;49.05;94420.97;4988357;28;20042;-77
2023/08/12 01:55:43;;;;;;;4.18;2.45;;;;;;;17.99;48.13;94414.25;4992194;28;20616;-78
2023/08/12 01:58:08;;;;;;;3.70;2.58;;;;;;;17.98;48.96;94420.81;4991184;28;20041;-78
2023/08/12 02:00:34;;;;;;;3.53;2.33;;;;;;;17.76;48.71;94386.34;4993638;28;20034;-78
2023/08/12 02:02:59;;;;;;;2.85;2.55;;;;;;;17.84;48.15;94388.09;4992764;28;26218;-77
2023/08/12 02:05:24;;;;;;;2.35;2.13;;;;;;;17.89;47.69;94409.34;4997199;28;20029;-76
2023/08/12 02:07:50;;;;;;;3.00;2.05;;;;;;;17.90;47.88;94412.81;4997065;28;20559;-77
2023/08/12 02:10:15;;;;;;;2.58;2.38;;;;;;;17.90;47.86;94408.22;4988621;28;20041;-77
2023/08/12 02:12:41;;;;;;;3.70;2.47;;;;;;;17.89;48.56;94414.72;4991397;28;20035;-76
2023/08/12 02:15:06;;;;;;;2.85;2.40;;;;;;;17.87;48.10;94398.16;4992372;28;20660;-77
2023/08/12 02:17:32;;;;;;;3.35;2.13;;;;;;;17.88;48.37;94404.34;4993389;28;20034;-78
2023/08/12 02:19:57;;;;;;;3.53;2.13;;;;;;;17.95;48.10;94416.09;4993416;28;20058;-78
2023/08/12 02:22:23;;;;;;;2.78;2.10;;;;;;;18.02;47.64;94410.91;4992621;28;20042;-76
2023/08/12 02:24:48;;;;;;;3.10;2.08;;;;;;;17.82;47.91;94401.13;4990349;28;20931;-78
2023/08/12 02:27:14;;;;;;;3.53;2.50;;;;;;;17.81;47.78;94402.22;4993352;28;20073;-77
2023/08/12 02:29:39;;;;;;;4.35;3.13;;;;;;;17.76;47.97;94397.09;4996041;28;20025;-79
2023/08/12 02:32:05;;;;;;;3.60;2.38;;;;;;;17.79;48.00;94407.19;4990984;28;20487;-77
2023/08/12 02:34:30;;;;;;;7.18;2.92;;;;;;;17.83;48.39;94413.44;4992892;28;20073;-77
2023/08/12 02:36:56;;;;;;;3.53;1.98;;;;;;;17.92;47.34;94411.38;4976996;28;20039;-78
2023/08/12 02:39:21;;;;;;;3.78;2.03;;;;;;;17.93;47.71;94412.97;4992217;28;20135;-78
2023/08/12 02:41:46;;;;;;;2.75;2.20;;;;;;;17.70;47.42;94382.31;4993872;28;20029;-78
2023/08/12 02:44:12;;;;;;;4.25;2.08;;;;;;;17.81;46.96;94421.06;4986934;28;20027;-77
2023/08/12 02:46:37;;;;;;;4.05;2.50;;;;;;;17.82;48.00;94424.53;4991018;28;20643;-76
2023/08/12 02:49:03;;;;;;;2.58;2.35;;;;;;;17.93;47.51;94423.75;4988578;28;20042;-77
2023/08/12 02:51:28;;;;;;;2.47;2.00;;;;;;;17.88;47.82;94420.47;4989917;28;20410;-78
2023/08/12 02:53:54;;;;;;;2.85;2.45;;;;;;;17.87;47.31;94413.53;4994089;28;20536;-76
2023/08/12 02:56:19;;;;;;;3.35;2.33;;;;;;;17.86;47.41;94426.19;4987336;28;20134;-79
2023/08/12 02:58:44;;;;;;;3.95;2.35;;;;;;;17.75;47.49;94419.75;4989758;28;20521;-76
2023/08/12 03:01:10;;;;;;;2.17;1.85;;;;;;;17.73;47.87;94413.16;4992306;28;20042;-76
2023/08/12 03:03:35;;;;;;;2.55;2.08;;;;;;;17.73;47.72;94413.16;4993825;28;20197;-78
2023/08/12 03:06:01;;;;;;;3.90;2.88;;;;;;;17.83;47.45;94424.22;4993896;28;20043;-77
2023/08/12 03:08:26;;;;;;;3.88;2.15;;;;;;;17.79;48.04;94411.78;4987277;28;20528;-76
2023/08/12 03:11:01;;;;;;;4.63;2.20;;;;;;;17.82;47.51;94421.84;4996000;28;20035;-77
2023/08/12 03:13:27;;;;;;;4.32;2.28;;;;;;;17.73;47.57;94419.31;4992204;28;20056;-76
2023/08/12 03:15:52;;;;;;;2.20;2.00;;;;;;;17.62;48.30;94410.16;4990997;28;20120;-78
2023/08/12 03:18:18;;;;;;;2.65;2.40;;;;;;;17.57;48.64;94402.34;4990961;28;20171;-78
2023/08/12 03:20:43;;;;;;;15.57;2.63;;;;;;;17.56;49.04;94409.63;4990666;28;20483;-77
2023/08/12 03:23:08;;;;;;;8.80;2.80;;;;;;;17.59;49.19;94424.31;5002381;28;20026;-78
2023/08/12 03:25:34;;;;;;;2.78;2.40;;;;;;;17.54;49.36;94416.47;4989573;28;20125;-78
2023/08/12 03:27:59;;;;;;;3.85;2.15;;;;;;;17.48;49.54;94420.53;4995385;28;20039;-78
2023/08/12 03:30:24;;;;;;;2.88;2.28;;;;;;;17.40;49.92;94422.25;4992279;28;20395;-78
2023/08/12 03:32:51;;;;;;;2.67;1.98;;;;;;;17.35;50.27;94432.47;4991410;28;20022;-78
2023/08/12 03:35:17;;;;;;;3.55;2.80;;;;;;;17.35;50.21;94424.41;4986219;28;20050;-76
2023/08/12 03:37:42;;;;;;;4.38;2.17;;;;;;;17.20;50.63;94427.78;4991356;28;20108;-78
2023/08/12 03:40:08;;;;;;;3.42;3.13;;;;;;;17.22;50.69;94420.16;4990248;28;20434;-79
2023/08/12 03:42:33;;;;;;;4.18;2.40;;;;;;;17.25;50.77;94422.19;4991010;28;20091;-78
2023/08/12 03:44:59;;;;;;;2.88;2.50;;;;;;;17.27;50.88;94438.72;4984273;28;20055;-78
2023/08/12 03:47:24;;;;;;;8.07;3.00;;;;;;;17.27;50.96;94427.97;4995361;28;20014;-78
2023/08/12 03:49:50;;;;;;;4.75;2.65;;;;;;;17.16;51.14;94425.75;4995889;28;20503;-79
2023/08/12 03:52:15;;;;;;;5.20;2.83;;;;;;;17.29;51.08;94441.88;4992335;28;20735;-77
2023/08/12 03:54:41;;;;;;;3.88;2.70;;;;;;;17.14;51.36;94430.72;4988132;28;20403;-76
2023/08/12 03:57:06;;;;;;;5.95;2.63;;;;;;;17.06;51.38;94422.75;4992262;28;20478;-79
2023/08/12 03:59:32;;;;;;;4.47;2.90;;;;;;;17.03;51.49;94413.44;4992651;28;20038;-76
2023/08/12 04:01:57;;;;;;;4.75;2.58;;;;;;;17.13;51.85;94431.81;4998709;28;20500;-77
2023/08/12 04:04:23;;;;;;;3.60;2.63;;;;;;;17.29;51.95;94449.94;4995998;28;20053;-78
2023/08/12 04:06:51;;;;;;;11.70;3.40;;;;;;;17.24;51.66;94424.09;4996483;28;20054;-79
2023/08/12 04:09:17;;;;;;;2.90;2.40;;;;;;;17.40;51.06;94442.97;4990097;28;20470;-78
2023/08/12 04:11:43;;;;;;;3.33;2.50;;;;;;;17.40;51.61;94448.34;4991735;28;20403;-78
2023/08/12 04:14:08;;;;;;;6.53;2.40;;;;;;;17.36;51.53;94431.31;4981796;28;20032;-76
2023/08/12 04:16:33;;;;;;;4.75;3.03;;;;;;;17.42;51.78;94435.34;4990887;28;20045;-76
2023/08/12 04:18:59;;;;;;;3.40;2.70;;;;;;;17.56;51.06;94441.91;4991601;28;20592;-77
2023/08/12 04:21:25;;;;;;;5.70;2.95;;;;;;;17.54;50.64;94430.72;4990233;28;20034;-77
2023/08/12 04:23:50;;;;;;;7.53;3.13;;;;;;;17.54;50.30;94422.66;4989423;28;20394;-78
2023/08/12 04:26:16;;;;;;;8.45;3.53;;;;;;;17.76;49.58;94445.53;4988724;28;20042;-78
2023/08/12 04:28:41;;;;;;;4.90;3.42;;;;;;;17.83;49.89;94440.34;4995066;28;20032;-77
2023/08/12 04:31:09;;;;;;;5.97;3.10;;;;;;;17.83;49.68;94426.91;4977752;28;20034;-79
2023/08/12 04:33:34;;;;;;;5.85;3.17;;;;;;;18.00;49.31;94445.44;4984227;28;20493;-78
2023/08/12 04:36:00;;;;;;;3.30;2.70;;;;;;;17.91;49.08;94436.72;4990072;28;20131;-78
2023/08/12 04:38:25;;;;;;;5.43;3.38;;;;;;;18.08;49.04;94451.03;4987245;28;20073;-78
2023/08/12 04:40:54;;;;;;;4.93;2.83;;;;;;;18.09;48.24;94447.22;4987440;28;20030;-76
2023/08/12 04:43:19;;;;;;;5.50;2.53;;;;;;;18.11;47.82;94429.56;4992076;28;20602;-78
2023/08/12 04:45:48;;;;;;;4.45;2.50;;;;;;;18.26;47.70;94452.25;4993521;28;20069;-78
2023/08/12 04:48:14;;;;;;;5.93;3.00;;;;;;;18.24;47.39;94449.13;4981859;28;20044;-78
2023/08/12 04:50:40;;;;;;;3.22;2.22;;;;;;;18.17;46.82;94448.94;4994225;28;20028;-77
2023/08/12 04:53:05;;;;;;;4.07;2.15;;;;;;;17.98;47.28;94436.94;5003972;28;20038;-78
2023/08/12 04:55:31;;;;;;;7.35;2.05;;;;;;;18.31;46.62;94450.09;4991289;28;20042;-78
2023/08/12 04:57:57;;;;;;;3.22;2.63;;;;;;;18.44;46.48;94450.78;4988000;28;20327;-78
2023/08/12 05:00:23;;;;;;;2.33;2.00;;;;;;;18.43;45.68;94446.56;4991115;28;20044;-76
2023/08/12 05:02:49;;;;;;;2.55;2.25;;;;;;;18.54;45.69;94441.41;4995423;28;20414;-79
2023/08/12 05:05:14;;;;;;;3.03;2.25;;;;;;;18.65;45.77;94451.31;4985087;28;20117;-76
2023/08/12 05:07:40;;;;;;;6.20;2.90;;;;;;;18.54;46.12;94446.78;4988377;28;20770;-79
2023/08/12 05:10:06;;;;;;;2.50;2.08;;;;;;;18.55;45.39;94449.16;4988329;28;20050;-76
2023/08/12 05:12:31;;;;;;;5.43;2.70;;;;;;;18.51;45.81;94442.91;4990618;28;20057;-77
2023/08/12 05:14:57;;;;;;;3.38;2.38;;;;;;;18.43;46.38;94458.09;4989911;28;20725;-78
2023/08/12 05:17:23;;;;;;;3.15;2.40;;;;;;;18.34;46.17;94444.00;4995453;28;20030;-77
2023/08/12 05:19:48;;;;;;;7.07;2.53;;;;;;;18.45;46.13;94445.06;4991064;28;20080;-76
2023/08/12 05:22:13;;;;;;;3.88;2.63;;;;;;;18.43;46.20;94460.78;4989906;28;20049;-79
2023/08/12 05:24:39;;;;;;;8.15;2.97;;;;;;;18.52;46.62;94452.56;4998062;28;20865;-79
2023/08/12 05:27:05;;;;;;;4.85;2.70;;;;;;;18.51;46.87;94458.28;4990968;28;20061;-77
2023/08/12 05:29:33;;;;;;;5.18;2.83;;;;;;;18.52;47.11;94463.31;4995963;28;20099;-76
2023/08/12 05:31:59;;;;;;;4.50;2.45;;;;;;;18.51;46.87;94448.28;4995324;28;20045;-77
2023/08/12 05:34:24;;;;;;;6.28;3.05;;;;;;;18.56;46.60;94449.94;4996659;28;20414;-79
2023/08/12 05:36:49;;;;;;;7.45;2.42;;;;;;;18.51;46.40;94453.69;4989048;28;20055;-77
2023/08/12 05:39:18;;;;;;;5.03;2.80;;;;;;;18.42;46.16;94447.69;4992477;28;20039;-76
2023/08/12 05:41:43;;;;;;;3.85;2.70;;;;;;;18.47;48.26;94468.97;4980522;28;20022;-77
2023/08/12 05:44:09;;;;;;;6.72;3.17;;;;;;;18.52;47.12;94449.84;4994304;28;20505;-78
2023/08/12 05:46:34;;;;;;;6.88;2.63;;;;;;;18.82;46.76;94459.06;4991180;28;20711;-78
2023/08/12 05:48:59;;;;;;;5.03;2.20;;;;;;;18.92;46.42;94457.00;4992961;28;20044;-78
2023/08/12 05:51:26;;;;;;;5.72;2.92;;;;;;;18.70;45.89;94455.66;4990142;28;20035;-77
2023/08/12 05:53:51;;;;;;;6.80;2.80;;;;;;;18.81;46.14;94468.31;4996269;28;20027;-75
2023/08/12 05:56:16;;;;;;;4.65;2.22;;;;;;;18.87;45.32;94456.09;4988796;28;20030;-77
2023/08/12 05:58:42;;;;;;;3.83;2.10;;;;;;;18.87;45.81;94456.09;4996583;28;20041;-78
2023/08/12 06:01:08;;;;;;;5.57;2.72;;;;;;;18.78;45.43;94465.50;4991417;28;20045;-77
2023/08/12 06:03:33;;;;;;;5.80;2.30;;;;;;;18.72;46.15;94459.63;4983614;28;20049;-78
2023/08/12 06:05:59;;;;;;;5.25;2.50;;;;;;;18.88;45.79;94440.72;4996994;28;20026;-79
2023/08/12 06:08:24;;;;;;;7.45;2.30;;;;;;;19.02;46.89;94451.06;4993173;28;20119;-79
2023/08/12 06:10:50;;;;;;;5.20;2.20;;;;;;;19.10;45.25;94453.56;4998727;28;20056;-77
2023/08/12 06:13:15;;;;;;;3.70;2.40;;;;;;;19.04;45.16;94443.41;4977060;28;20117;-78
2023/08/12 06:15:41;;;;;;;3.50;2.22;;;;;;;18.79;45.64;94438.22;4994219;28;20113;-76
2023/08/12 06:18:06;;;;;;;3.83;2.33;;;;;;;18.97;45.93;94448.63;4993938;28;20432;-79
2023/08/12 06:20:31;;;;;;;6.18;2.88;;;;;;;18.95;46.19;94440.13;4993474;28;20759;-76
2023/08/12 06:22:57;;;;;;;3.55;1.95;;;;;;;19.09;45.62;94445.81;4985838;28;21169;-78
2023/08/12 06:25:22;;;;;;;5.20;2.55;;;;;;;19.07;44.55;94432.69;4990210;28;21140;-78
2023/08/12 06:27:48;;;;;;;4.07;2.30;;;;;;;19.13;45.60;94452.06;4989216;28;20092;-78
2023/08/12 06:30:15;;;;;;;3.80;2.47;;;;;;;19.08;45.51;94446.94;4996027;28;20042;-78
2023/08/12 06:32:41;;;;;;;6.65;2.50;;;;;;;19.26;46.06;94435.41;5057483;28;20476;-76
2023/08/12 06:35:06;;;;;;;3.42;2.10;;;;;;;19.46;45.68;94432.75;4993104;28;20151;-77
2023/08/12 06:37:32;;;;;;;2.95;1.98;;;;;;;19.37;44.23;94441.03;4985716;28;20034;-79
2023/08/12 06:39:57;;;;;;;8.07;2.47;;;;;;;19.23;44.95;94424.56;4986471;28;20049;-76
2023/08/12 06:42:23;;;;;;;3.20;2.47;;;;;;;19.36;44.50;94433.31;5005375;28;20043;-79
2023/08/12 06:44:56;;;;;;;4.18;2.60;;;;;;;19.37;44.85;94430.25;4994961;28;20031;-79
2023/08/12 06:47:21;;;;;;;3.45;2.60;;;;;;;19.44;44.44;94435.81;4992744;28;20022;-78
2023/08/12 06:49:48;;;;;;;3.53;2.00;;;;;;;19.30;44.73;94430.13;4996186;28;20042;-77
2023/08/12 06:52:15;;;;;;;3.58;2.22;;;;;;;19.54;44.32;94429.88;5003157;28;20039;-77
2023/08/12 06:54:41;;;;;;;3.50;1.92;;;;;;;19.68;44.07;94432.06;4989873;28;20028;-79
2023/08/12 06:57:06;;;;;;;3.83;2.83;;;;;;;19.56;44.62;94418.72;4992697;28;20122;-77
2023/08/12 06:59:31;;;;;;;3.42;2.38;;;;;;;19.73;44.53;94429.09;4982407;28;20148;-76
2023/08/12 07:01:57;;;;;;;3.40;1.98;;;;;;;19.69;45.47;94429.03;4988851;28;20495;-76
2023/08/12 07:04:22;;;;;;;4.80;2.47;;;;;;;19.87;44.53;94431.28;4994425;28;20038;-78
2023/08/12 07:06:48;;;;;;;6.65;2.72;;;;;;;19.63;43.89;94422.34;4993195;28;20045;-79
2023/08/12 07:09:13;;;;;;;5.38;2.40;;;;;;;19.79;44.83;94421.50;4985240;28;20045;-79
2023/08/12 07:11:40;;;;;;;3.20;2.20;;;;;;;19.87;45.56;94413.16;4989780;28;20030;-77
2023/08/12 07:14:05;;;;;;;4.22;2.88;;;;;;;19.99;43.10;94425.75;4992957;28;20597;-77
2023/08/12 07:16:30;;;;;;;3.60;2.28;;;;;;;19.72;43.30;94422.91;4972291;28;20541;-79
2023/08/12 07:18:56;;;;;;;3.67;2.67;;;;;;;19.80;43.36;94420.38;4983216;28;20039;-78
2023/08/12 07:21:21;;;;;;;3.60;2.78;;;;;;;19.90;43.45;94423.25;4991549;28;20049;-78
2023/08/12 07:23:47;;;;;;;4.45;2.55;;;;;;;19.94;44.51;94436.81;4990712;28;20061;-77
2023/08/12 07:26:12;;;;;;;10.65;2.30;;;;;;;19.91;42.24;94415.94;4986616;28;20600;-77
2023/08/12 07:28:37;;;;;;;2.90;2.25;;;;;;;20.14;42.23;94430.25;4979887;28;20040;-78
2023/08/12 07:31:03;;;;;;;4.18;2.78;;;;;;;20.15;42.39;94432.59;4993629;28;20117;-79
2023/08/12 07:33:28;;;;;;;4.55;2.78;;;;;;;20.21;43.69;94433.09;4970953;28;20076;-79
2023/08/12 07:35:56;;;;;;;5.53;2.42;;;;;;;20.31;43.04;94429.03;5005475;28;20046;-79
2023/08/12 07:38:22;;;;;;;4.57;2.50;;;;;;;20.34;42.75;94431.78;5015849;28;20058;-77
2023/08/12 07:40:51;;;;;;;4.90;2.78;;;;;;;20.32;42.88;94425.19;4991410;28;20121;-78
2023/08/12 07:43:17;;;;;;;4.72;2.58;;;;;;;20.32;42.43;94417.88;4987788;28;20046;-76
2023/08/12 07:45:43;;;;;;;11.27;3.95;;;;;;;20.55;41.76;94429.47;4969805;28;20050;-78
2023/08/12 07:48:08;;;;;;;3.50;2.97;;;;;;;20.68;42.99;94421.94;4987791;28;20635;-77
2023/08/12 07:50:34;;;;;;;3.78;2.45;;;;;;;20.76;42.69;94414.72;4988636;28;20107;-76
2023/08/12 07:52:59;;;;;;;4.25;2.70;;;;;;;20.77;41.68;94395.44;4986190;28;20508;-77
2023/08/12 07:55:25;;;;;;;4.85;2.83;;;;;;;20.99;40.71;94415.47;5003840;28;20466;-78
2023/08/12 07:57:50;;;;;;;5.00;2.95;;;;;;;20.82;41.34;94415.97;4980913;28;20274;-78
2023/08/12 08:00:16;;;;;;;4.82;3.22;;;;;;;20.85;40.78;94409.84;4979704;28;20114;-78
2023/08/12 08:02:41;;;;;;;3.33;2.75;;;;;;;20.60;41.03;94388.63;4987816;28;20121;-77
2023/08/12 08:05:07;;;;;;;4.03;3.20;;;;;;;20.69;41.57;94404.56;4986839;28;20448;-76
2023/08/12 08:07:33;;;;;;;3.92;3.13;;;;;;;20.57;42.38;94405.56;5001925;28;20053;-79
2023/08/12 08:09:58;;;;;;;4.93;3.10;;;;;;;20.63;41.95;94407.97;4992772;28;20498;-79
2023/08/12 08:12:24;;;;;;;5.13;3.13;;;;;;;20.57;41.61;94410.97;4990354;28;20271;-78
2023/08/12 08:14:49;;;;;;;25.40;4.88;;;;;;;20.66;42.77;94415.34;4993385;28;20399;-77
2023/08/12 08:17:14;;;;;;;4.45;2.92;;;;;;;20.43;43.02;94394.53;4985173;28;20444;-78
2023/08/12 08:19:40;;;;;;;9.05;3.50;;;;;;;20.80;41.94;94391.22;4995406;28;20046;-78
2023/08/12 08:22:05;;;;;;;6.18;2.90;;;;;;;21.03;41.67;94400.09;4994053;28;20038;-77
2023/08/12 08:24:31;;;;;;;3.80;2.38;;;;;;;21.27;41.98;94409.69;4993347;28;20385;-79
2023/08/12 08:26:56;;;;;;;5.22;3.03;;;;;;;21.01;41.66;94359.13;4992076;28;20034;-79
2023/08/12 08:29:22;;;;;;;4.63;2.53;;;;;;;21.16;40.92;94396.03;4990736;28;20377;-77
2023/08/12 08:31:48;;;;;;;2.72;2.17;;;;;;;21.28;40.54;94390.41;4992934;28;20037;-79
2023/08/12 08:34:14;;;;;;;5.35;3.03;;;;;;;21.48;40.01;94387.53;4994466;28;20034;-79
2023/08/12 08:36:40;;;;;;;5.40;2.90;;;;;;;21.64;40.78;94399.78;4989509;28;20050;-79
2023/08/12 08:39:05;;;;;;;3.45;2.53;;;;;;;21.72;40.32;94389.78;4990843;28;20135;-79
2023/08/12 08:41:32;;;;;;;4.40;2.28;;;;;;;21.60;40.97;94379.22;4996711;28;20026;-77
2023/08/12 08:44:03;;;;;;;4.57;2.40;;;;;;;21.69;41.48;94388.63;4990771;28;20129;-77
2023/08/12 08:46:29;;;;;;;4.25;2.72;;;;;;;21.41;39.75;94359.25;4991372;28;20056;-79
2023/08/12 08:48:58;;;;;;;8.80;2.65;;;;;;;21.65;39.80;94387.03;4986452;28;20039;-77
2023/08/12 08:51:25;;;;;;;4.53;2.50;;;;;;;21.28;39.01;94387.69;4974949;28;20059;-79
2023/08/12 08:53:54;;;;;;;4.82;2.60;;;;;;;21.57;39.30;94380.72;4987909;28;20042;-77
2023/08/12 08:56:20;;;;;;;3.30;2.17;;;;;;;21.62;39.73;94374.22;4992514;28;20038;-79
2023/08/12 08:58:46;;;;;;;4.55;2.38;;;;;;;21.74;40.03;94391.00;4990684;28;20025;-78
2023/08/12 09:01:11;;;;;;;2.40;2.20;;;;;;;21.75;40.03;94378.25;4990243;28;20478;-76
2023/08/12 09:03:38;;;;;;;20.40;2.85;;;;;;;21.95;39.75;94385.00;4997649;28;20444;-79
2023/08/12 09:06:03;;;;;;;3.78;2.92;;;;;;;22.01;38.62;94383.53;4998486;28;20042;-78
2023/08/12 09:08:31;;;;;;;4.35;2.10;;;;;;;22.02;38.83;94363.44;5002768;28;20027;-79
2023/08/12 09:10:59;;;;;;;5.35;2.85;;;;;;;21.96;38.90;94378.44;4998437;28;20061;-78
2023/08/12 09:13:25;;;;;;;7.90;3.22;;;;;;;21.16;39.70;94371.69;4993754;28;20054;-78
2023/08/12 09:15:50;;;;;;;4.95;3.17;;;;;;;21.28;39.74;94374.16;4993147;28;20556;-78
2023/08/12 09:18:17;;;;;;;3.05;2.50;;;;;;;21.58;38.80;94360.63;5011384;28;20048;-77
2023/08/12 09:20:43;;;;;;;2.83;2.10;;;;;;;21.68;38.29;94364.63;4991591;28;20041;-80
2023/08/12 09:23:10;;;;;;;2.47;2.28;;;;;;;21.55;38.81;94368.72;4996372;28;20060;-79
2023/08/12 09:25:42;;;;;;;3.67;2.63;;;;;;;21.66;37.80;94351.44;4991431;28;20049;-79
2023/08/12 09:28:09;;;;;;;2.63;2.35;;;;;;;21.92;38.62;94363.31;4992559;28;20035;-78
2023/08/12 09:30:34;;;;;;;5.28;2.70;;;;;;;22.07;38.73;94348.75;4993165;28;20045;-76
2023/08/12 09:33:06;;;;;;;8.65;2.65;;;;;;;21.92;38.70;94358.69;4995605;28;20040;-75
2023/08/12 09:35:39;;;;;;;5.55;2.30;;;;;;;21.82;38.28;94337.69;4994609;28;20184;-80
2023/08/12 09:38:12;;;;;;;5.40;3.00;;;;;;;22.01;38.04;94328.59;4995312;28;20083;-79
2023/08/12 09:40:38;;;;;;;4.00;3.15;;;;;;;22.15;38.94;94344.97;4993372;28;20032;-79
2023/08/12 09:43:05;;;;;;;3.80;2.70;;;;;;;22.22;38.45;94324.19;5010116;28;20027;-76
2023/08/12 09:45:31;;;;;;;6.15;2.45;;;;;;;22.35;37.49;94332.00;5000051;28;20081;-78
2023/08/12 09:47:57;;;;;;;2.88;1.95;;;;;;;22.38;36.99;94336.69;4996517;28;20030;-78
2023/08/12 09:50:25;;;;;;;6.15;2.70;;;;;;;22.27;37.48;94321.13;5002176;28;20026;-77
2023/08/12 09:52:51;;;;;;;2.63;2.20;;;;;;;22.27;38.19;94337.38;4997605;28;20034;-79
2023/08/12 09:55:18;;;;;;;2.42;2.20;;;;;;;22.12;36.46;94319.41;4992715;28;20498;-79
2023/08/12 09:57:45;;;;;;;2.00;1.88;;;;;;;21.94;37.74;94313.06;4997389;28;20090;-79
2023/08/12 10:00:16;;;;;;;3.33;2.53;;;;;;;22.06;38.06;94337.16;4994326;28;20494;-79
2023/08/12 10:02:43;;;;;;;4.63;2.15;;;;;;;21.97;37.71;94308.81;4976736;28;20107;-78
2023/08/12 10:05:11;;;;;;;3.60;2.40;;;;;;;22.27;38.35;94320.34;4995774;28;20041;-80
2023/08/12 10:07:39;;;;;;;3.83;2.33;;;;;;;22.32;38.45;94324.63;4994521;28;20042;-78
2023/08/12 10:10:06;;;;;;;3.13;2.35;;;;;;;22.42;38.36;94318.53;4998309;28;20051;-78
2023/08/12 10:12:33;;;;;;;3.60;2.70;;;;;;;22.40;37.86;94318.09;4993472;28;20530;-79
2023/08/12 10:15:00;;;;;;;4.18;2.75;;;;;;;22.42;37.58;94321.22;4995176;28;20035;-80
2023/08/12 10:17:25;;;;;;;4.03;2.58;;;;;;;22.38;37.79;94315.00;4993098;28;20048;-77
2023/08/12 10:19:57;;;;;;;3.30;2.47;;;;;;;22.67;38.03;94319.47;4993559;28;20581;-79
2023/08/12 10:22:25;;;;;;;3.00;2.70;;;;;;;22.59;37.51;94304.31;5008282;28;20037;-77
2023/08/12 10:24:51;;;;;;;3.70;2.30;;;;;;;22.84;37.95;94307.94;4994924;28;20042;-77
2023/08/12 10:27:18;;;;;;;4.97;2.38;;;;;;;22.79;37.38;94294.75;4993595;28;21061;-77
2023/08/12 10:29:43;;;;;;;3.80;2.05;;;;;;;22.89;37.16;94294.06;4997599;28;20034;-80
2023/08/12 10:32:09;;;;;;;3.83;2.70;;;;;;;22.82;36.18;94307.56;4994297;28;20075;-78
2023/08/12 10:34:34;;;;;;;5.07;2.67;;;;;;;22.90;36.46;94289.41;4993143;28;20117;-77
2023/08/12 10:37:03;;;;;;;4.18;2.20;;;;;;;23.04;36.66;94287.56;4992664;28;20180;-78
2023/08/12 10:39:31;;;;;;;3.50;2.63;;;;;;;22.82;38.77;94275.03;4990040;28;21067;-78
2023/08/12 10:41:58;;;;;;;2.63;2.40;;;;;;;23.05;37.68;94286.41;4998618;28;20049;-76
2023/08/12 10:44:39;;;;;;;2.85;2.47;;;;;;;23.11;36.91;94281.41;4996632;28;20157;-78
2023/08/12 10:47:10;;;;;;;3.63;2.42;;;;;;;23.09;35.42;94284.47;5011368;28;20039;-75
2023/08/12 10:49:39;;;;;;;2.20;1.98;;;;;;;23.11;35.15;94275.97;4993152;28;20035;-78
2023/08/12 10:52:05;;;;;;;2.65;1.67;;;;;;;23.17;35.33;94283.34;4999572;28;20031;-76
2023/08/12 10:54:30;;;;;;;2.35;2.08;;;;;;;23.26;35.86;94276.81;4989939;28;20100;-78
2023/08/12 10:57:05;;;;;;;2.67;2.30;;;;;;;23.23;34.55;94285.69;4997599;28;20042;-79
2023/08/12 10:59:45;;;;;;;3.55;1.90;;;;;;;23.20;37.79;94278.31;4986907;28;20034;-80
2023/08/12 11:02:28;;;;;;;1.90;1.58;;;;;;;23.52;36.95;94273.78;4993884;28;20408;-78
2023/08/12 11:05:04;;;;;;;1.92;1.58;;;;;;;23.63;35.54;94266.47;5007913;28;20091;-77
2023/08/12 11:07:33;;;;;;;3.25;1.75;;;;;;;23.49;33.63;94269.13;4996204;28;20037;-78
2023/08/12 11:10:05;;;;;;;2.45;1.90;;;;;;;23.57;33.84;94263.34;4998317;28;20066;-76
2023/08/12 11:12:33;;;;;;;2.38;1.60;;;;;;;23.57;32.45;94259.84;4989502;28;20118;-76
2023/08/12 11:15:00;;;;;;;2.50;2.00;;;;;;;23.54;32.29;94263.34;5008123;28;20114;-78
2023/08/12 11:17:33;;;;;;;6.57;2.35;;;;;;;23.81;35.07;94261.03;4997109;28;20034;-76
2023/08/12 11:19:59;;;;;;;5.10;2.22;;;;;;;23.66;34.69;94262.22;4990512;28;20122;-78
2023/08/12 11:22:25;;;;;;;2.17;1.80;;;;;;;23.90;36.94;94251.38;4991329;28;20043;-76
2023/08/12 11:24:50;;;;;;;3.40;2.03;;;;;;;23.94;36.69;94257.59;4992220;28;20042;-76
2023/08/12 11:27:17;;;;;;;2.65;1.90;;;;;;;23.75;34.83;94238.94;4995139;28;20418;-77
2023/08/12 11:29:43;;;;;;;3.30;1.98;;;;;;;23.89;35.69;94244.38;4992569;28;20061;-76